Time;durP1;ratioP1;P1;durP2;ratioP2;P2;SDS_P1;SDS_P2;PMS_P1;PMS_P2;Temp;Humidity;BMP_temperature;BMP_pressure;BME280_temperature;BME280_humidity;BME280_pressure;Samples;Min_cycle;Max_cycle;Signal;HPM_P1;HPM_P2
2023/10/12 00:02:53;;;;;;;7.70;2.72;;;;;;;;;;6312094;27;20053;-65
2023/10/12 00:05:55;;;;;;;7.05;2.72;;;;;;;;;;6302098;27;20125;-65
2023/10/12 00:08:57;;;;;;;6.20;2.88;;;;;;;;;;6256889;27;20509;-65
2023/10/12 00:12:07;;;;;;;5.20;2.42;;;;;;;;;;6283895;27;20063;-65
2023/10/12 00:15:23;;;;;;;7.65;2.78;;;;;;;;;;6259912;27;20044;-65
2023/10/12 00:18:25;;;;;;;7.30;2.92;;;;;;;;;;6259849;27;20840;-65
2023/10/12 00:21:28;;;;;;;14.52;3.00;;;;;;;;;;6273068;27;20048;-65
2023/10/12 00:24:30;;;;;;;5.50;3.55;;;;;;;;;;6268844;27;20048;-65
2023/10/12 00:27:34;;;;;;;6.47;2.63;;;;;;;;;;6273829;27;20489;-64
2023/10/12 00:30:36;;;;;;;6.00;3.10;;;;;;;;;;6287471;27;20051;-63
2023/10/12 00:33:38;;;;;;;4.15;2.97;;;;;;;;;;6261432;27;20056;-64
2023/10/12 00:36:41;;;;;;;9.55;3.08;;;;;;;;;;6257371;27;20551;-64
2023/10/12 00:42:55;;;;;;;6.20;3.63;;;;;;;;;;6259567;27;20059;-64
2023/10/12 00:45:58;;;;;;;6.75;3.13;;;;;;;;;;6279534;27;20137;-65
2023/10/12 00:52:35;;;;;;;7.97;3.13;;;;;;;;;;6259630;27;20052;-65
2023/10/12 00:55:37;;;;;;;5.28;2.80;;;;;;;;;;6292357;27;20096;-65
2023/10/12 00:58:39;;;;;;;6.32;2.70;;;;;;;;;;6295257;27;20041;-65
2023/10/12 01:01:41;;;;;;;7.07;3.20;;;;;;;;;;6248561;27;20044;-66
2023/10/12 01:04:48;;;;;;;5.95;2.53;;;;;;;;;;6318437;27;20068;-65
2023/10/12 01:07:53;;;;;;;4.75;2.63;;;;;;;;;;6321277;27;20054;-65
2023/10/12 01:10:57;;;;;;;8.35;3.65;;;;;;;;;;6264375;27;20149;-66
2023/10/12 01:17:08;;;;;;;3.47;2.42;;;;;;;;;;6258960;27;20173;-66
2023/10/12 01:20:17;;;;;;;4.20;2.30;;;;;;;;;;6265549;27;20171;-65
2023/10/12 01:23:19;;;;;;;5.20;2.95;;;;;;;;;;6252320;27;20742;-66
2023/10/12 01:26:22;;;;;;;4.18;2.17;;;;;;;;;;6279838;27;20041;-66
2023/10/12 01:29:25;;;;;;;5.93;2.80;;;;;;;;;;6254858;27;20071;-66
2023/10/12 01:32:27;;;;;;;6.78;3.22;;;;;;;;;;6256444;27;20535;-66
2023/10/12 01:35:33;;;;;;;4.78;2.50;;;;;;;;;;6265020;27;20581;-65
2023/10/12 01:38:38;;;;;;;7.95;2.22;;;;;;;;;;6237155;28;20053;-66
2023/10/12 01:41:41;;;;;;;4.65;1.90;;;;;;;;;;6266246;27;20048;-66
2023/10/12 01:44:43;;;;;;;4.35;2.00;;;;;;;;;;6258994;27;20053;-66
2023/10/12 01:47:50;;;;;;;4.47;2.30;;;;;;;;;;6270509;27;20049;-65
2023/10/12 01:50:55;;;;;;;7.22;2.90;;;;;;;;;;6263634;27;20198;-66
2023/10/12 01:53:57;;;;;;;4.90;2.53;;;;;;;;;;6288610;27;20052;-65
2023/10/12 01:57:00;;;;;;;5.10;2.35;;;;;;;;;;6282965;27;20053;-65
2023/10/12 02:00:07;;;;;;;5.78;2.95;;;;;;;;;;6254244;27;20712;-66
2023/10/12 02:03:17;;;;;;;4.43;2.80;;;;;;;;;;6273169;27;20093;-65
2023/10/12 02:06:22;;;;;;;4.97;3.08;;;;;;;;;;6259853;27;20053;-66
2023/10/12 02:09:24;;;;;;;4.30;2.50;;;;;;;;;;6245147;27;20542;-65
2023/10/12 02:12:27;;;;;;;5.40;2.35;;;;;;;;;;6261165;27;20049;-65
2023/10/12 02:15:31;;;;;;;5.15;2.90;;;;;;;;;;6253349;28;20052;-66
2023/10/12 02:18:35;;;;;;;4.28;2.83;;;;;;;;;;6267049;27;20045;-66
2023/10/12 02:21:40;;;;;;;5.60;3.38;;;;;;;;;;6312769;27;20073;-65
2023/10/12 02:24:43;;;;;;;6.75;2.70;;;;;;;;;;6247874;27;20049;-66
2023/10/12 02:27:54;;;;;;;6.53;3.53;;;;;;;;;;6265630;27;20087;-66
2023/10/12 02:30:56;;;;;;;4.22;2.55;;;;;;;;;;6257673;27;20053;-65
2023/10/12 02:34:01;;;;;;;4.88;2.72;;;;;;;;;;6268113;27;20075;-66
2023/10/12 02:40:16;;;;;;;7.93;3.17;;;;;;;;;;6256996;27;20554;-65
2023/10/12 02:43:19;;;;;;;4.20;2.40;;;;;;;;;;6258818;27;20049;-63
2023/10/12 02:46:25;;;;;;;4.18;2.58;;;;;;;;;;6260348;27;20135;-65
2023/10/12 02:49:29;;;;;;;4.57;2.88;;;;;;;;;;6256212;27;20037;-66
2023/10/12 02:52:32;;;;;;;4.90;2.88;;;;;;;;;;6267455;27;20620;-66
2023/10/12 02:55:40;;;;;;;5.82;2.58;;;;;;;;;;6249731;27;20822;-66
2023/10/12 02:58:45;;;;;;;5.32;2.70;;;;;;;;;;6246019;28;20048;-66
2023/10/12 03:01:49;;;;;;;8.98;2.92;;;;;;;;;;6266963;27;20099;-66
2023/10/12 03:04:51;;;;;;;5.00;2.92;;;;;;;;;;6312170;27;20522;-65
2023/10/12 03:07:53;;;;;;;5.88;3.35;;;;;;;;;;6251055;27;20079;-66
2023/10/12 03:11:10;;;;;;;3.85;2.25;;;;;;;;;;6256450;27;20049;-65
2023/10/12 03:14:14;;;;;;;10.80;3.03;;;;;;;;;;6237661;28;20045;-65
2023/10/12 03:17:17;;;;;;;5.30;2.20;;;;;;;;;;6256413;27;20048;-66
2023/10/12 03:20:23;;;;;;;4.75;3.00;;;;;;;;;;6256571;27;20120;-65
2023/10/12 03:23:26;;;;;;;6.32;3.30;;;;;;;;;;6281756;27;20055;-65
2023/10/12 03:26:29;;;;;;;5.57;3.20;;;;;;;;;;6255457;28;20123;-65
2023/10/12 03:29:32;;;;;;;7.35;3.40;;;;;;;;;;6246401;28;20052;-66
2023/10/12 03:32:35;;;;;;;8.07;3.38;;;;;;;;;;6248169;27;20045;-66
2023/10/12 03:35:51;;;;;;;11.63;3.70;;;;;;;;;;6251545;27;20431;-66
2023/10/12 03:45:34;;;;;;;4.63;2.67;;;;;;;;;;6280667;27;20783;-65
2023/10/12 03:48:51;;;;;;;4.93;2.90;;;;;;;;;;6292890;27;20045;-65
2023/10/12 03:51:58;;;;;;;4.82;3.05;;;;;;;;;;6248837;27;20094;-66
2023/10/12 03:58:14;;;;;;;7.88;3.47;;;;;;;;;;6254632;27;20486;-65
2023/10/12 04:01:24;;;;;;;4.68;2.90;;;;;;;;;;6258055;27;20049;-65
2023/10/12 04:04:35;;;;;;;6.68;3.00;;;;;;;;;;6261206;27;20045;-65
2023/10/12 04:08:00;;;;;;;5.95;3.80;;;;;;;;;;6302559;27;20446;-65
2023/10/12 04:11:33;;;;;;;4.65;2.83;;;;;;;;;;6260745;27;20059;-66
2023/10/12 04:14:44;;;;;;;5.38;3.30;;;;;;;;;;6259724;27;20078;-65
2023/10/12 04:17:48;;;;;;;5.30;3.22;;;;;;;;;;6256364;27;20045;-65
2023/10/12 04:20:50;;;;;;;8.05;3.78;;;;;;;;;;6254262;27;20070;-66
2023/10/12 04:27:11;;;;;;;8.30;3.67;;;;;;;;;;6267816;27;20045;-65
2023/10/12 04:30:23;;;;;;;5.18;3.28;;;;;;;;;;6254601;27;20044;-65
2023/10/12 04:33:27;;;;;;;4.32;2.65;;;;;;;;;;6249709;27;20045;-64
2023/10/12 04:37:07;;;;;;;6.88;4.07;;;;;;;;;;6253422;27;20060;-64
2023/10/12 04:40:30;;;;;;;;;;;;;;;;;;6260966;27;20045;-64
2023/10/12 04:43:23;;;;;;;6.53;2.90;;;;;;;;;;6278561;27;19927;-64
2023/10/12 04:46:38;;;;;;;8.02;3.13;;;;;;;;;;6282273;27;20096;-64
2023/10/12 04:53:06;;;;;;;7.18;3.45;;;;;;;;;;6249842;27;20436;-65
2023/10/12 04:56:10;;;;;;;5.65;2.78;;;;;;;;;;6255351;27;20051;-65
2023/10/12 04:59:16;;;;;;;5.45;4.00;;;;;;;;;;6258056;27;20665;-65
2023/10/12 05:05:55;;;;;;;10.45;4.70;;;;;;;;;;6262347;27;20048;-65
2023/10/12 05:08:57;;;;;;;11.32;5.63;;;;;;;;;;6254974;27;20064;-65
2023/10/12 05:12:00;;;;;;;10.32;4.32;;;;;;;;;;6256981;27;20260;-65
2023/10/12 05:15:11;;;;;;;6.80;3.53;;;;;;;;;;6273648;27;20048;-65
2023/10/12 05:18:17;;;;;;;8.10;3.60;;;;;;;;;;6257521;27;20044;-65
2023/10/12 05:21:19;;;;;;;10.73;4.75;;;;;;;;;;6257463;27;20204;-65
2023/10/12 05:24:22;;;;;;;6.68;4.03;;;;;;;;;;6257204;27;20049;-65
2023/10/12 05:27:24;;;;;;;14.60;3.75;;;;;;;;;;6253852;27;20523;-65
2023/10/12 05:30:30;;;;;;;6.40;2.95;;;;;;;;;;6281513;27;20044;-80
2023/10/12 05:36:42;;;;;;;;;;;;;;;;;;6254701;27;20462;-79
2023/10/12 05:39:47;;;;;;;6.03;3.05;;;;;;;;;;6247462;27;20018;-80
2023/10/12 05:42:50;;;;;;;13.20;3.63;;;;;;;;;;6252553;27;20133;-79
2023/10/12 05:45:53;;;;;;;4.82;3.55;;;;;;;;;;6258865;27;20041;-80
2023/10/12 05:48:58;;;;;;;10.93;4.20;;;;;;;;;;6256924;27;20045;-80
2023/10/12 05:52:04;;;;;;;8.20;3.30;;;;;;;;;;6274966;27;20562;-80
2023/10/12 05:55:19;;;;;;;11.18;4.22;;;;;;;;;;6221770;27;20060;-80
2023/10/12 05:58:21;;;;;;;8.98;5.13;;;;;;;;;;6247237;28;20852;-80
2023/10/12 06:01:32;;;;;;;7.72;4.03;;;;;;;;;;6252201;27;20055;-80
2023/10/12 06:04:38;;;;;;;7.95;3.75;;;;;;;;;;6253750;27;20065;-80
2023/10/12 06:07:41;;;;;;;5.13;3.13;;;;;;;;;;6254641;27;20060;-75
2023/10/12 06:10:43;;;;;;;9.15;4.57;;;;;;;;;;6270819;27;20062;-74
2023/10/12 06:13:51;;;;;;;7.95;3.67;;;;;;;;;;6259521;27;20194;-72
2023/10/12 06:17:02;;;;;;;14.05;3.58;;;;;;;;;;6297519;27;20058;-71
2023/10/12 06:20:12;;;;;;;13.70;3.20;;;;;;;;;;6265330;27;20595;-72
2023/10/12 06:23:15;;;;;;;8.68;4.65;;;;;;;;;;6278734;27;20207;-73
2023/10/12 06:26:30;;;;;;;8.27;3.97;;;;;;;;;;6251259;27;20041;-74
2023/10/12 06:29:32;;;;;;;9.93;4.40;;;;;;;;;;6248193;27;20033;-74
2023/10/12 06:32:38;;;;;;;6.95;3.83;;;;;;;;;;6261733;27;20053;-74
2023/10/12 06:36:04;;;;;;;7.25;2.97;;;;;;;;;;6250828;27;20527;-74
2023/10/12 06:42:26;;;;;;;6.10;3.10;;;;;;;;;;6255894;27;20037;-71
2023/10/12 06:45:29;;;;;;;;;;;;;;;;;;6253051;27;20045;-74
2023/10/12 06:51:35;;;;;;;4.95;3.25;;;;;;;;;;6243054;27;20048;-74
2023/10/12 06:57:43;;;;;;;5.72;2.92;;;;;;;;;;6263699;27;20049;-74
2023/10/12 07:01:18;;;;;;;8.98;3.53;;;;;;;;;;6244431;27;20094;-74
2023/10/12 07:04:13;;;;;;;8.23;2.83;;;;;;;;;;6356656;27;20540;-74
2023/10/12 07:07:15;;;;;;;8.05;4.15;;;;;;;;;;6276890;27;20064;-74
2023/10/12 07:10:27;;;;;;;6.47;2.83;;;;;;;;;;6239430;27;20041;-74
2023/10/12 07:13:29;;;;;;;9.38;2.90;;;;;;;;;;6257395;27;20057;-74
2023/10/12 07:16:40;;;;;;;7.05;2.92;;;;;;;;;;6311588;27;20056;-74
2023/10/12 07:19:47;;;;;;;8.48;3.35;;;;;;;;;;6247205;27;20080;-65
2023/10/12 07:22:49;;;;;;;7.55;2.38;;;;;;;;;;6291469;27;20066;-65
2023/10/12 07:25:58;;;;;;;5.82;3.15;;;;;;;;;;6257554;27;20064;-66
2023/10/12 07:29:07;;;;;;;8.93;2.58;;;;;;;;;;6267156;27;20049;-66
2023/10/12 07:32:38;;;;;;;8.52;2.60;;;;;;;;;;6255593;27;20045;-66
2023/10/12 07:35:42;;;;;;;10.10;3.53;;;;;;;;;;6262564;27;20653;-66
2023/10/12 07:38:46;;;;;;;6.32;2.83;;;;;;;;;;6277288;27;20884;-66
2023/10/12 07:42:25;;;;;;;6.30;2.50;;;;;;;;;;6337871;27;20837;-66
2023/10/12 07:45:19;;;;;;;7.10;2.40;;;;;;;;;;6312432;27;20054;-65
2023/10/12 07:48:31;;;;;;;7.22;2.78;;;;;;;;;;6251987;27;20132;-66
2023/10/12 07:51:53;;;;;;;5.45;4.03;;;;;;;;;;6261083;27;20125;-75
2023/10/12 07:54:57;;;;;;;8.75;3.15;;;;;;;;;;6298956;27;20049;-75
2023/10/12 07:58:00;;;;;;;6.70;3.47;;;;;;;;;;6296364;27;20081;-72
2023/10/12 08:01:26;;;;;;;8.48;3.28;;;;;;;;;;6296897;27;20041;-72
2023/10/12 08:04:29;;;;;;;5.10;2.63;;;;;;;;;;6306358;27;20052;-72
2023/10/12 08:07:55;;;;;;;7.38;2.75;;;;;;;;;;6254984;27;20716;-71
2023/10/12 08:10:58;;;;;;;7.60;3.40;;;;;;;;;;6282026;27;20048;-71
2023/10/12 08:17:35;;;;;;;8.68;3.33;;;;;;;;;;6266187;27;20060;-71
2023/10/12 08:20:46;;;;;;;9.73;2.95;;;;;;;;;;6261832;27;20045;-69
2023/10/12 08:27:18;;;;;;;5.78;2.13;;;;;;;;;;6242532;27;20085;-73
2023/10/12 08:30:24;;;;;;;6.35;2.60;;;;;;;;;;6328361;27;20042;-63
2023/10/12 08:40:18;;;;;;;7.53;3.00;;;;;;;;;;6259370;27;20604;-65
2023/10/12 08:43:45;;;;;;;5.93;2.20;;;;;;;;;;6271729;27;20048;-64
2023/10/12 08:46:56;;;;;;;6.65;3.78;;;;;;;;;;6274139;27;20047;-64
2023/10/12 08:53:04;;;;;;;10.70;3.35;;;;;;;;;;6273800;27;20034;-67
2023/10/12 08:56:08;;;;;;;;;;;;;;;;;;6291249;27;20040;-71
2023/10/12 08:59:11;;;;;;;6.25;2.83;;;;;;;;;;6250132;27;20035;-70
2023/10/12 09:02:19;;;;;;;6.00;2.67;;;;;;;;;;6242890;27;20601;-71
2023/10/12 09:05:30;;;;;;;8.13;3.13;;;;;;;;;;6284243;27;20161;-72
2023/10/12 09:11:34;;;;;;;4.72;3.05;;;;;;;;;;6290033;27;20612;-65
2023/10/12 09:14:43;;;;;;;9.73;2.60;;;;;;;;;;6257834;27;20935;-65
2023/10/12 09:17:45;;;;;;;5.93;2.53;;;;;;;;;;6266000;27;20651;-65
2023/10/12 09:24:21;;;;;;;9.35;3.33;;;;;;;;;;6253921;27;20049;-64
2023/10/12 09:27:36;;;;;;;5.20;2.80;;;;;;;;;;6312625;27;20132;-64
2023/10/12 09:30:44;;;;;;;6.38;3.55;;;;;;;;;;6247556;27;20093;-64
2023/10/12 09:37:06;;;;;;;6.18;2.67;;;;;;;;;;6277557;27;20049;-64
2023/10/12 09:40:24;;;;;;;7.00;2.63;;;;;;;;;;6279639;27;20427;-65
2023/10/12 09:43:30;;;;;;;8.75;3.80;;;;;;;;;;6296260;27;20139;-64
2023/10/12 09:46:35;;;;;;;8.05;2.80;;;;;;;;;;6286202;27;20045;-64
2023/10/12 09:49:43;;;;;;;7.88;3.33;;;;;;;;;;6255925;27;20706;-65
2023/10/12 09:52:57;;;;;;;7.40;2.95;;;;;;;;;;6256712;27;20045;-64
2023/10/12 09:59:19;;;;;;;5.45;3.60;;;;;;;;;;6270241;27;20085;-64
2023/10/12 10:02:28;;;;;;;10.07;2.70;;;;;;;;;;6268633;27;20060;-64
2023/10/12 10:09:19;;;;;;;9.50;2.97;;;;;;;;;;6278923;27;20043;-64
2023/10/12 10:12:23;;;;;;;9.18;2.95;;;;;;;;;;6259798;27;20100;-64
2023/10/12 10:15:36;;;;;;;7.88;2.85;;;;;;;;;;6277733;27;20527;-65
2023/10/12 10:18:57;;;;;;;8.27;2.72;;;;;;;;;;6250446;27;20060;-65
2023/10/12 10:22:05;;;;;;;7.97;3.10;;;;;;;;;;6253569;28;20656;-64
2023/10/12 10:25:17;;;;;;;6.63;2.08;;;;;;;;;;6279735;27;20693;-65
2023/10/12 10:28:25;;;;;;;5.78;3.20;;;;;;;;;;6253736;27;20057;-65
2023/10/12 10:31:28;;;;;;;5.32;2.00;;;;;;;;;;6250915;27;20080;-65
2023/10/12 10:34:34;;;;;;;5.00;2.67;;;;;;;;;;6269530;27;20523;-64
2023/10/12 10:37:47;;;;;;;11.48;2.53;;;;;;;;;;6257876;27;20071;-63
2023/10/12 10:40:49;;;;;;;6.47;2.53;;;;;;;;;;6252355;27;20508;-65
2023/10/12 10:43:52;;;;;;;5.45;2.38;;;;;;;;;;6260422;27;20051;-65
2023/10/12 10:46:57;;;;;;;9.32;3.10;;;;;;;;;;6258747;27;20041;-65
2023/10/12 10:50:00;;;;;;;7.65;2.63;;;;;;;;;;6272569;27;20042;-65
2023/10/12 10:53:08;;;;;;;7.05;2.88;;;;;;;;;;6256468;28;20140;-73
2023/10/12 10:56:16;;;;;;;8.52;3.38;;;;;;;;;;6245802;27;21342;-65
2023/10/12 10:59:18;;;;;;;5.68;2.28;;;;;;;;;;6273319;27;20050;-65
2023/10/12 11:02:21;;;;;;;8.85;1.92;;;;;;;;;;6275885;27;20054;-65
2023/10/12 11:05:28;;;;;;;6.85;2.75;;;;;;;;;;6292310;27;20611;-63
2023/10/12 11:08:32;;;;;;;9.15;4.35;;;;;;;;;;6328555;27;20049;-65
2023/10/12 11:11:48;;;;;;;6.15;2.47;;;;;;;;;;6272798;27;20041;-63
2023/10/12 11:15:00;;;;;;;10.27;2.45;;;;;;;;;;6285451;27;20055;-63
2023/10/12 11:18:15;;;;;;;7.32;2.20;;;;;;;;;;6292769;27;20128;-65
2023/10/12 11:21:17;;;;;;;5.65;3.10;;;;;;;;;;6272776;27;20120;-65
2023/10/12 11:24:23;;;;;;;6.82;2.22;;;;;;;;;;6264207;27;20126;-65
2023/10/12 11:27:33;;;;;;;6.57;2.72;;;;;;;;;;6308229;27;20041;-63
2023/10/12 11:30:36;;;;;;;5.70;2.45;;;;;;;;;;6262174;27;20041;-65
2023/10/12 11:33:48;;;;;;;6.30;2.22;;;;;;;;;;6324919;27;20062;-66
2023/10/12 11:36:59;;;;;;;8.73;2.72;;;;;;;;;;6290662;27;20052;-65
2023/10/12 11:40:06;;;;;;;9.05;2.67;;;;;;;;;;6293230;27;20046;-72
2023/10/12 11:43:09;;;;;;;12.18;2.70;;;;;;;;;;6280778;27;20061;-70
2023/10/12 11:46:14;;;;;;;10.48;3.33;;;;;;;;;;6281811;27;20060;-69
2023/10/12 11:49:17;;;;;;;11.18;2.42;;;;;;;;;;6275637;27;20050;-71
2023/10/12 11:52:29;;;;;;;4.85;2.72;;;;;;;;;;6259619;27;20041;-71
2023/10/12 11:55:32;;;;;;;7.25;2.33;;;;;;;;;;6264524;27;20049;-72
2023/10/12 11:58:34;;;;;;;7.00;2.25;;;;;;;;;;6242332;27;20051;-72
2023/10/12 12:01:40;;;;;;;5.25;3.05;;;;;;;;;;6298057;27;20828;-64
2023/10/12 12:04:43;;;;;;;8.23;2.70;;;;;;;;;;6297224;27;20139;-67
2023/10/12 12:08:06;;;;;;;8.38;2.55;;;;;;;;;;6263329;27;20142;-69
2023/10/12 12:11:09;;;;;;;7.13;3.00;;;;;;;;;;6285985;27;20049;-69
2023/10/12 12:14:11;;;;;;;7.25;2.55;;;;;;;;;;6263892;27;20072;-73
2023/10/12 12:17:15;;;;;;;6.88;2.28;;;;;;;;;;6264132;27;20052;-73
2023/10/12 12:20:21;;;;;;;6.20;2.60;;;;;;;;;;6299133;27;20046;-73
2023/10/12 12:23:34;;;;;;;8.15;3.17;;;;;;;;;;6287949;27;20647;-74
2023/10/12 12:26:38;;;;;;;7.65;2.70;;;;;;;;;;6256240;27;20145;-66
2023/10/12 12:29:41;;;;;;;7.28;2.50;;;;;;;;;;6290697;27;20043;-65
2023/10/12 12:33:08;;;;;;;8.48;3.00;;;;;;;;;;6307624;27;20037;-65
2023/10/12 12:36:23;;;;;;;5.50;2.67;;;;;;;;;;6254755;27;20049;-65
2023/10/12 12:39:32;;;;;;;15.35;2.65;;;;;;;;;;6270341;27;20072;-65
2023/10/12 12:42:34;;;;;;;14.65;3.15;;;;;;;;;;6263737;27;20707;-65
2023/10/12 12:45:36;;;;;;;6.78;2.47;;;;;;;;;;6275371;27;20052;-65
2023/10/12 12:48:38;;;;;;;7.60;2.65;;;;;;;;;;6264904;27;20052;-64
2023/10/12 12:51:41;;;;;;;4.43;2.90;;;;;;;;;;6278633;27;20056;-67
2023/10/12 12:54:44;;;;;;;9.15;2.33;;;;;;;;;;6277076;27;20424;-66
2023/10/12 12:57:46;;;;;;;5.53;2.42;;;;;;;;;;6284448;27;20052;-66
2023/10/12 13:00:48;;;;;;;11.70;2.92;;;;;;;;;;6255098;27;20664;-66
2023/10/12 13:03:57;;;;;;;5.75;2.33;;;;;;;;;;6259144;27;20052;-65
2023/10/12 13:07:07;;;;;;;12.50;3.10;;;;;;;;;;6260627;27;20041;-67
2023/10/12 13:10:11;;;;;;;8.98;3.55;;;;;;;;;;6252955;27;20488;-66
2023/10/12 13:13:13;;;;;;;8.55;2.55;;;;;;;;;;6307572;27;20139;-66
2023/10/12 13:16:16;;;;;;;9.73;2.55;;;;;;;;;;6269302;27;20097;-67
2023/10/12 13:19:18;;;;;;;5.80;2.60;;;;;;;;;;6259100;27;20101;-73
2023/10/12 13:22:21;;;;;;;10.40;2.67;;;;;;;;;;6247762;27;20084;-66
2023/10/12 13:25:26;;;;;;;6.90;2.70;;;;;;;;;;6265092;27;20045;-66
2023/10/12 13:28:28;;;;;;;10.00;2.85;;;;;;;;;;6270346;27;20041;-65
2023/10/12 13:31:30;;;;;;;9.60;2.72;;;;;;;;;;6246900;27;20041;-71
2023/10/12 13:34:33;;;;;;;13.90;4.20;;;;;;;;;;6270106;27;20532;-72
2023/10/12 13:37:39;;;;;;;11.57;3.58;;;;;;;;;;6277969;27;20045;-72
2023/10/12 13:40:46;;;;;;;10.10;4.10;;;;;;;;;;6246879;27;20431;-72
2023/10/12 13:43:48;;;;;;;8.52;3.67;;;;;;;;;;6270156;27;20140;-72
2023/10/12 13:46:51;;;;;;;10.38;3.55;;;;;;;;;;6263887;27;20036;-72
2023/10/12 13:49:56;;;;;;;6.38;2.78;;;;;;;;;;6257144;27;20534;-72
2023/10/12 13:53:00;;;;;;;9.30;3.28;;;;;;;;;;6251061;27;20048;-72
2023/10/12 13:56:08;;;;;;;8.02;3.08;;;;;;;;;;6264707;27;20044;-65
2023/10/12 13:59:14;;;;;;;6.82;3.72;;;;;;;;;;6277359;27;20659;-65
2023/10/12 14:02:16;;;;;;;12.05;3.53;;;;;;;;;;6311835;27;20045;-66
2023/10/12 14:05:24;;;;;;;7.88;3.10;;;;;;;;;;6285256;27;20046;-74
2023/10/12 14:08:32;;;;;;;6.30;4.80;;;;;;;;;;6271362;27;20457;-68
2023/10/12 14:11:34;;;;;;;7.10;2.80;;;;;;;;;;6264953;27;20049;-72
2023/10/12 14:14:36;;;;;;;7.22;3.25;;;;;;;;;;6247749;27;20053;-70
2023/10/12 14:17:38;;;;;;;7.63;3.30;;;;;;;;;;6260544;27;20053;-71
2023/10/12 14:20:42;;;;;;;10.80;3.47;;;;;;;;;;6289668;27;20052;-71
2023/10/12 14:23:45;;;;;;;16.05;6.15;;;;;;;;;;6251952;27;20093;-73
2023/10/12 14:26:48;;;;;;;14.38;2.92;;;;;;;;;;6241110;27;20053;-71
2023/10/12 14:29:52;;;;;;;;;;;;;;;;;;6248588;27;20540;-73
2023/10/12 14:32:55;;;;;;;14.98;3.10;;;;;;;;;;6263660;27;19923;-74
2023/10/12 14:35:58;;;;;;;11.30;3.28;;;;;;;;;;6241538;27;20433;-74
2023/10/12 14:39:01;;;;;;;34.50;17.98;;;;;;;;;;6262419;27;20071;-74
2023/10/12 14:42:03;;;;;;;9.85;3.28;;;;;;;;;;6244546;27;20432;-75
2023/10/12 14:45:07;;;;;;;27.70;10.80;;;;;;;;;;6249673;27;20071;-73
2023/10/12 14:48:11;;;;;;;7.13;3.03;;;;;;;;;;6250039;27;20075;-74
2023/10/12 14:51:13;;;;;;;7.97;3.88;;;;;;;;;;6246747;27;20030;-73
2023/10/12 14:54:15;;;;;;;10.63;3.05;;;;;;;;;;6258248;27;20042;-73
2023/10/12 14:57:17;;;;;;;9.73;3.22;;;;;;;;;;6243202;27;20039;-73
2023/10/12 15:00:22;;;;;;;8.30;3.58;;;;;;;;;;6293580;27;20455;-73
2023/10/12 15:03:26;;;;;;;8.35;3.58;;;;;;;;;;6244983;28;20052;-73
2023/10/12 15:06:31;;;;;;;7.72;3.33;;;;;;;;;;6283216;27;20037;-73
2023/10/12 15:09:35;;;;;;;11.10;3.90;;;;;;;;;;6270231;27;20546;-73
2023/10/12 15:12:37;;;;;;;15.77;4.82;;;;;;;;;;6299958;27;20504;-73
2023/10/12 15:15:47;;;;;;;9.07;3.40;;;;;;;;;;6265338;27;20059;-73
2023/10/12 15:18:51;;;;;;;9.05;2.95;;;;;;;;;;6274150;27;20100;-73
2023/10/12 15:21:53;;;;;;;9.30;3.83;;;;;;;;;;6255263;27;20486;-72
2023/10/12 15:24:56;;;;;;;9.50;2.90;;;;;;;;;;6250313;28;20407;-73
2023/10/12 15:27:58;;;;;;;7.72;3.28;;;;;;;;;;6310650;27;20048;-73
2023/10/12 15:31:04;;;;;;;11.52;3.35;;;;;;;;;;6326318;27;20085;-72
2023/10/12 15:34:06;;;;;;;12.95;4.15;;;;;;;;;;6299854;27;20165;-72
2023/10/12 15:37:08;;;;;;;29.30;5.70;;;;;;;;;;6267808;27;20186;-73
2023/10/12 15:40:12;;;;;;;81.65;35.35;;;;;;;;;;6254887;28;20088;-72
2023/10/12 15:43:17;;;;;;;24.13;10.35;;;;;;;;;;6278908;27;20042;-72
2023/10/12 15:46:19;;;;;;;16.90;6.50;;;;;;;;;;6362963;27;20487;-72
2023/10/12 15:49:21;;;;;;;14.98;6.53;;;;;;;;;;6264338;27;20546;-72
2023/10/12 15:52:24;;;;;;;19.88;4.65;;;;;;;;;;6281843;27;20033;-72
2023/10/12 15:55:27;;;;;;;31.23;6.80;;;;;;;;;;6323904;27;20048;-72
2023/10/12 15:58:31;;;;;;;20.60;4.93;;;;;;;;;;6242213;27;20053;-72
2023/10/12 16:01:33;;;;;;;28.65;5.80;;;;;;;;;;6328779;27;20093;-72
2023/10/12 16:04:35;;;;;;;27.98;5.45;;;;;;;;;;6271257;27;20041;-72
2023/10/12 16:07:37;;;;;;;18.05;5.18;;;;;;;;;;6282326;27;20043;-72
2023/10/12 16:10:46;;;;;;;15.50;5.13;;;;;;;;;;6272836;27;20746;-72
2023/10/12 16:13:48;;;;;;;19.48;5.07;;;;;;;;;;6286704;27;20451;-72
2023/10/12 16:16:50;;;;;;;12.38;4.47;;;;;;;;;;6259393;27;20052;-72
2023/10/12 16:19:54;;;;;;;;;;;;;;;;;;6282295;27;20052;-72
2023/10/12 16:22:58;;;;;;;9.23;3.80;;;;;;;;;;6270372;27;19928;-73
2023/10/12 16:26:00;;;;;;;8.93;4.75;;;;;;;;;;6235289;28;20091;-71
2023/10/12 16:29:07;;;;;;;13.50;5.20;;;;;;;;;;6264137;27;20048;-69
2023/10/12 16:32:09;;;;;;;10.35;4.25;;;;;;;;;;6272092;27;20033;-72
2023/10/12 16:35:13;;;;;;;16.98;5.00;;;;;;;;;;6269418;27;20049;-68
2023/10/12 16:38:17;;;;;;;15.90;5.40;;;;;;;;;;6259381;27;20048;-74
2023/10/12 16:41:19;;;;;;;16.55;4.85;;;;;;;;;;6259719;27;20072;-69
2023/10/12 16:44:22;;;;;;;16.45;5.57;;;;;;;;;;6259086;27;20057;-63
2023/10/12 16:47:25;;;;;;;11.25;5.80;;;;;;;;;;6247819;27;20100;-67
2023/10/12 16:50:27;;;;;;;18.92;10.20;;;;;;;;;;6353109;27;20039;-67
2023/10/12 16:53:29;;;;;;;22.10;8.55;;;;;;;;;;6259417;27;20075;-70
2023/10/12 16:56:32;;;;;;;14.82;8.90;;;;;;;;;;6249562;28;20506;-74
2023/10/12 16:59:35;;;;;;;19.50;14.55;;;;;;;;;;6259545;27;20072;-76
2023/10/12 17:02:37;;;;;;;31.55;22.42;;;;;;;;;;6262479;27;20048;-75
2023/10/12 17:05:39;;;;;;;67.75;60.10;;;;;;;;;;6304538;27;20036;-79
2023/10/12 17:08:44;;;;;;;51.58;46.15;;;;;;;;;;6239112;27;20053;-71
2023/10/12 17:11:48;;;;;;;27.58;22.08;;;;;;;;;;6271935;27;20093;-72
2023/10/12 17:14:52;;;;;;;42.03;37.58;;;;;;;;;;6254720;27;20045;-73
2023/10/12 17:17:54;;;;;;;91.53;80.00;;;;;;;;;;6259126;27;20052;-70
2023/10/12 17:20:58;;;;;;;114.78;102.38;;;;;;;;;;6254116;27;20208;-74
2023/10/12 17:24:00;;;;;;;15.38;11.10;;;;;;;;;;6258556;27;20041;-73
2023/10/12 17:27:04;;;;;;;25.48;12.00;;;;;;;;;;6256834;27;20564;-75
2023/10/12 17:30:07;;;;;;;19.25;15.40;;;;;;;;;;6256021;27;20045;-75
2023/10/12 17:33:11;;;;;;;35.58;21.23;;;;;;;;;;6242477;27;20042;-74
2023/10/12 17:36:17;;;;;;;37.42;26.80;;;;;;;;;;6266178;27;20040;-75
2023/10/12 17:39:19;;;;;;;40.22;29.52;;;;;;;;;;6252882;28;20044;-74
2023/10/12 17:42:23;;;;;;;41.70;33.90;;;;;;;;;;6269898;27;20041;-73
2023/10/12 17:45:28;;;;;;;65.55;48.85;;;;;;;;;;6245933;27;20045;-65
2023/10/12 17:48:31;;;;;;;90.75;65.18;;;;;;;;;;6264370;27;20044;-64
2023/10/12 17:51:35;;;;;;;104.35;74.18;;;;;;;;;;6299826;27;20039;-64
2023/10/12 17:54:40;;;;;;;90.82;68.15;;;;;;;;;;6253027;27;20626;-65
2023/10/12 17:57:45;;;;;;;113.07;76.10;;;;;;;;;;6281163;27;20563;-65
2023/10/12 18:00:47;;;;;;;84.63;59.58;;;;;;;;;;6261021;27;20448;-64
2023/10/12 18:03:49;;;;;;;112.45;80.68;;;;;;;;;;6299945;27;20082;-70
2023/10/12 18:06:55;;;;;;;69.72;50.63;;;;;;;;;;6304366;27;20139;-71
2023/10/12 18:10:00;;;;;;;101.47;80.00;;;;;;;;;;6293137;27;20049;-72
2023/10/12 18:13:02;;;;;;;126.70;87.03;;;;;;;;;;6257210;27;20536;-71
2023/10/12 18:16:10;;;;;;;136.93;94.35;;;;;;;;;;6277730;27;20130;-73
2023/10/12 18:19:12;;;;;;;81.18;54.47;;;;;;;;;;6257038;27;20053;-64
2023/10/12 18:22:16;;;;;;;35.65;20.98;;;;;;;;;;6280476;27;20165;-63
2023/10/12 18:25:19;;;;;;;8.57;5.65;;;;;;;;;;6252918;27;20045;-66
2023/10/12 18:28:29;;;;;;;;;;;;;;;;;;6259078;27;20045;-63
2023/10/12 18:31:32;;;;;;;12.75;6.07;;;;;;;;;;6260276;27;19929;-73
2023/10/12 18:34:37;;;;;;;11.65;3.85;;;;;;;;;;6244517;27;20042;-69
2023/10/12 18:37:41;;;;;;;8.50;3.72;;;;;;;;;;6250143;27;20614;-69
2023/10/12 18:40:43;;;;;;;7.90;3.08;;;;;;;;;;6248248;27;20063;-69
2023/10/12 18:43:50;;;;;;;7.80;3.25;;;;;;;;;;6281858;27;20053;-70
2023/10/12 18:46:52;;;;;;;7.90;4.38;;;;;;;;;;6251633;27;20061;-70
2023/10/12 18:49:56;;;;;;;7.07;3.50;;;;;;;;;;6257340;27;20206;-70
2023/10/12 18:53:11;;;;;;;6.65;3.70;;;;;;;;;;6293010;27;20041;-69
2023/10/12 18:56:14;;;;;;;4.30;2.83;;;;;;;;;;6268535;27;20103;-69
2023/10/12 18:59:16;;;;;;;6.90;3.08;;;;;;;;;;6249676;27;20045;-69
2023/10/12 19:02:19;;;;;;;6.28;3.55;;;;;;;;;;6266932;27;20049;-69
2023/10/12 19:05:22;;;;;;;8.38;2.97;;;;;;;;;;6265490;27;20144;-69
2023/10/12 19:08:25;;;;;;;8.88;3.92;;;;;;;;;;6260325;27;20048;-69
2023/10/12 19:11:28;;;;;;;5.63;3.97;;;;;;;;;;6274306;27;20044;-69
2023/10/12 19:14:32;;;;;;;6.28;2.70;;;;;;;;;;6301779;27;20378;-69
2023/10/12 19:17:35;;;;;;;8.63;2.78;;;;;;;;;;6265911;27;20037;-68
2023/10/12 19:20:37;;;;;;;6.47;3.97;;;;;;;;;;6278157;27;20155;-68
2023/10/12 19:23:40;;;;;;;6.93;4.18;;;;;;;;;;6268161;27;20456;-68
2023/10/12 19:26:42;;;;;;;6.55;3.08;;;;;;;;;;6351028;27;20061;-68
2023/10/12 19:29:47;;;;;;;7.50;3.88;;;;;;;;;;6305731;27;20551;-69
2023/10/12 19:32:49;;;;;;;6.68;3.03;;;;;;;;;;6263754;27;20109;-69
2023/10/12 19:35:52;;;;;;;8.55;3.53;;;;;;;;;;6256368;27;20731;-69
2023/10/12 19:38:53;;;;;;;6.28;3.10;;;;;;;;;;6275569;27;20061;-69
2023/10/12 19:42:00;;;;;;;6.13;3.08;;;;;;;;;;6260494;27;20812;-69
2023/10/12 19:45:07;;;;;;;9.50;4.20;;;;;;;;;;6256825;27;20075;-69
2023/10/12 19:48:11;;;;;;;6.75;2.78;;;;;;;;;;6265097;27;20056;-69
2023/10/12 19:51:14;;;;;;;9.63;3.00;;;;;;;;;;6295243;27;20060;-69